Portada
METAR-TAF:

METAR-TAF

Aeroports :

Chennai, Índia

latitud: 13-00N, longitud: 080-11E, altitud: 10 m

Observació

L'informe es va fer fa 11 minuts, a les 14:00 UTC
Vent 12 kt del Sud amb ràfegues de 22 kt
Temperatura 31°C
Humitat 75%
Pressió 1005 hPa
Visibilitat: 6000 m
Escasses núvols a una alçada de 2000 ft

METAR: VOMM 031400Z 17012G22KT 6000 FEW020 31/26 Q1005 NOSIG

Hora: 19:41 (14:11 UTC)

Pronòstic

L'informe es va fer fa 3 hores i 11 minuts, a les 11:00 UTC
Pronòstic vàlid del 03 a les 12 UTC al 04 a les 18 UTC
Vent 10 kt del Sud-Est
Visibilitat: 6000 m
Escasses núvols a una alçada de 2000 ft
Núvols disperses a una alçada de 10000 ft
Temporalment
l' 03 a les 18 UTC al 03 a les 24 UTC
Visibilitat: 3000 m
Núvols disperses a una alçada de 1500 ft
Escasses núvols a una alçada de 2500 ft, Cumulonimbus.
Cel ennuvolat a una alçada de 8000 ft

TAF: VOMM 031100Z 0312/0418 13010KT 6000 FEW020 SCT100 TEMPO 0318/0324 3000 TSRA/RA SCT015 FEW025CB BKN080

Observacions i pronòstics meteorològics de més de 4000 aeroports (METAR i TAF).

Les estacions disponibles són els punts grocs i vermells al mapa.

Posi el ratolí al punt desitjat per veure el nom de l'estació.

Feu clic per veure les observacions i els pronòstics meteorològics.

Per canviar el mapa: feu clic els botons verds amb una creu de color negre per apropar; al botó verd amb un guió per allunyar la imatge; o en les fletxes verdes per a mapes adjacents.


METAR-TAF: